createdAt,value
2018-09-30T00:01:17.333Z,9.63
2018-09-30T00:03:46.010Z,9.43
2018-09-30T00:06:14.677Z,8.83
2018-09-30T00:08:43.366Z,8.40
2018-09-30T00:12:41.498Z,8.07
2018-09-30T00:15:10.251Z,8.43
2018-09-30T00:17:38.885Z,8.83
2018-09-30T00:20:07.605Z,8.53
2018-09-30T00:22:36.394Z,8.77
2018-09-30T00:25:10.471Z,8.17
2018-09-30T00:27:39.155Z,8.00
2018-09-30T00:30:07.830Z,7.93
2018-09-30T00:32:36.609Z,7.43
2018-09-30T00:35:05.315Z,8.43
2018-09-30T00:37:33.983Z,7.60
2018-09-30T00:40:02.686Z,7.07
2018-09-30T00:42:31.424Z,7.10
2018-09-30T00:45:00.091Z,8.03
2018-09-30T00:47:29.471Z,7.37
2018-09-30T00:49:58.094Z,6.53
2018-09-30T00:52:26.994Z,6.57
2018-09-30T00:54:55.667Z,6.63
2018-09-30T00:57:24.372Z,6.50
2018-09-30T00:59:53.005Z,5.87
2018-09-30T01:02:21.717Z,5.40
2018-09-30T01:04:50.366Z,5.60
2018-09-30T01:07:18.980Z,6.03
2018-09-30T01:09:47.676Z,5.70
2018-09-30T01:12:16.527Z,4.60
2018-09-30T01:14:45.211Z,4.80
2018-09-30T01:17:13.919Z,3.80
2018-09-30T01:19:43.037Z,4.17
2018-09-30T01:22:11.797Z,4.03
2018-09-30T01:24:40.519Z,4.13
2018-09-30T01:27:09.190Z,4.33
2018-09-30T01:29:37.872Z,4.00
2018-09-30T01:32:06.517Z,3.27
2018-09-30T01:34:35.158Z,3.53
2018-09-30T01:37:03.819Z,3.67
2018-09-30T01:39:32.594Z,3.60
2018-09-30T01:42:01.405Z,3.70
2018-09-30T01:44:30.098Z,3.93
2018-09-30T01:46:58.809Z,3.57
2018-09-30T01:49:28.282Z,3.90
2018-09-30T01:53:00.030Z,3.57
2018-09-30T01:55:28.965Z,3.90
2018-09-30T01:57:57.632Z,3.17
2018-09-30T02:00:26.370Z,3.77
2018-09-30T02:02:55.048Z,3.67
2018-09-30T02:05:23.773Z,3.60
2018-09-30T02:07:52.480Z,3.57
2018-09-30T02:10:21.151Z,4.10
2018-09-30T02:12:49.861Z,3.30
2018-09-30T02:15:18.491Z,3.83
2018-09-30T02:17:47.189Z,3.60
2018-09-30T02:20:15.885Z,3.83
2018-09-30T02:22:44.586Z,3.57
2018-09-30T02:25:13.333Z,4.23
2018-09-30T02:27:42.042Z,3.80
2018-09-30T02:30:10.712Z,3.93
2018-09-30T02:32:39.435Z,3.70
2018-09-30T02:35:08.082Z,4.13
2018-09-30T02:37:36.833Z,3.93
2018-09-30T02:40:05.573Z,3.80
2018-09-30T02:42:34.273Z,3.90
2018-09-30T02:45:02.950Z,3.77
2018-09-30T02:47:31.722Z,4.23
2018-09-30T02:50:00.414Z,3.27
2018-09-30T02:52:29.288Z,3.70
2018-09-30T02:54:58.000Z,3.90
2018-09-30T02:57:26.809Z,4.27
2018-09-30T02:59:55.444Z,4.27
2018-09-30T03:02:24.262Z,3.90
2018-09-30T03:04:52.978Z,3.50
2018-09-30T03:07:26.995Z,3.70
2018-09-30T03:09:55.777Z,4.13
2018-09-30T03:12:24.513Z,4.10
2018-09-30T03:14:53.210Z,4.00
2018-09-30T03:17:21.874Z,4.17
2018-09-30T03:19:50.614Z,3.70
2018-09-30T03:22:19.354Z,3.87
2018-09-30T03:24:48.037Z,3.47
2018-09-30T03:27:16.733Z,4.10
2018-09-30T03:29:45.421Z,3.50
2018-09-30T03:32:14.266Z,3.53
2018-09-30T03:34:42.950Z,3.63
2018-09-30T03:37:11.701Z,4.23
2018-09-30T03:39:40.452Z,3.17
2018-09-30T03:42:09.144Z,3.20
2018-09-30T03:44:37.832Z,4.00
2018-09-30T03:47:06.479Z,4.00
2018-09-30T03:49:35.179Z,2.90
2018-09-30T03:52:03.986Z,4.03
2018-09-30T03:54:32.710Z,4.33
2018-09-30T03:57:01.426Z,4.07
2018-09-30T03:59:30.726Z,4.13
2018-09-30T04:01:59.449Z,4.40
2018-09-30T04:04:28.144Z,4.17
2018-09-30T04:06:56.805Z,4.30
2018-09-30T04:09:25.484Z,4.60
2018-09-30T04:11:54.206Z,4.37
2018-09-30T04:14:22.927Z,4.17
2018-09-30T04:16:51.713Z,4.30
2018-09-30T04:19:20.392Z,4.07
2018-09-30T04:21:49.231Z,4.13
2018-09-30T04:24:17.867Z,4.40
2018-09-30T04:26:46.532Z,4.50
2018-09-30T04:29:15.278Z,4.60
2018-09-30T04:31:44.037Z,4.57
2018-09-30T04:34:12.722Z,5.23
2018-09-30T04:36:41.433Z,5.00
2018-09-30T04:39:10.353Z,4.90
2018-09-30T04:41:39.160Z,4.53
2018-09-30T04:44:07.949Z,4.60
2018-09-30T04:46:36.644Z,4.60
2018-09-30T04:49:05.611Z,4.80
2018-09-30T04:51:34.312Z,4.87
2018-09-30T04:54:03.029Z,4.77
2018-09-30T04:56:31.777Z,5.57
2018-09-30T04:59:00.498Z,4.40
2018-09-30T05:01:29.353Z,5.10
2018-09-30T05:03:58.028Z,5.10
2018-09-30T05:06:26.758Z,4.80
2018-09-30T05:08:55.525Z,4.77
2018-09-30T05:11:24.373Z,5.47
2018-09-30T05:13:54.009Z,4.80
2018-09-30T05:16:22.719Z,4.90
2018-09-30T05:18:51.407Z,5.60
2018-09-30T05:21:20.160Z,5.50
2018-09-30T05:23:48.803Z,4.97
2018-09-30T05:26:17.456Z,5.17
2018-09-30T05:28:46.136Z,5.33
2018-09-30T05:31:14.842Z,4.97
2018-09-30T05:33:43.616Z,4.67
2018-09-30T05:36:12.399Z,5.10
2018-09-30T05:38:41.077Z,4.77
2018-09-30T05:41:09.753Z,5.07
2018-09-30T05:43:38.393Z,5.70
2018-09-30T05:46:07.140Z,5.37
2018-09-30T05:48:35.809Z,6.50
2018-09-30T05:51:04.536Z,5.53
2018-09-30T05:53:33.215Z,6.03
2018-09-30T05:56:01.906Z,6.13
2018-09-30T05:58:30.579Z,6.00
2018-09-30T06:00:59.354Z,5.93
2018-09-30T06:03:28.316Z,6.77
2018-09-30T06:05:56.982Z,6.47
2018-09-30T06:08:25.731Z,6.93
2018-09-30T06:10:54.492Z,6.50
2018-09-30T06:13:23.158Z,7.27
2018-09-30T06:15:51.983Z,6.20
2018-09-30T06:18:20.649Z,5.83
2018-09-30T06:20:49.535Z,6.10
2018-09-30T06:23:18.294Z,6.07
2018-09-30T06:25:46.983Z,6.60
2018-09-30T06:28:15.663Z,6.40
2018-09-30T06:30:44.464Z,6.63
2018-09-30T06:33:13.137Z,6.67
2018-09-30T06:35:41.979Z,6.60
2018-09-30T06:38:10.688Z,6.50
2018-09-30T06:40:39.505Z,7.27
2018-09-30T06:43:08.174Z,6.47
2018-09-30T06:45:36.914Z,6.77
2018-09-30T06:48:05.615Z,6.90
2018-09-30T06:50:34.471Z,7.60
2018-09-30T06:53:03.431Z,7.70
2018-09-30T06:55:32.961Z,7.60
2018-09-30T06:58:01.683Z,7.37
2018-09-30T07:00:30.554Z,8.10
2018-09-30T07:02:59.207Z,8.57
2018-09-30T07:05:27.950Z,8.37
2018-09-30T07:07:56.663Z,7.77
2018-09-30T07:10:25.410Z,7.87
2018-09-30T07:12:54.217Z,7.90
2018-09-30T07:15:22.941Z,8.23
2018-09-30T07:17:51.641Z,7.40
2018-09-30T07:20:20.386Z,8.20
2018-09-30T07:22:49.124Z,8.33
2018-09-30T07:25:17.736Z,8.80
2018-09-30T07:27:46.357Z,8.63
2018-09-30T07:30:15.148Z,7.73
2018-09-30T07:32:43.945Z,8.03
2018-09-30T07:35:12.617Z,8.53
2018-09-30T07:37:41.327Z,7.70
2018-09-30T07:40:10.109Z,8.23
2018-09-30T07:42:38.773Z,6.90
2018-09-30T07:45:07.441Z,7.40
2018-09-30T07:47:36.111Z,8.20
2018-09-30T07:50:04.774Z,7.50
2018-09-30T07:52:33.564Z,6.93
2018-09-30T07:55:02.238Z,6.37
2018-09-30T07:57:31.367Z,7.30
2018-09-30T08:00:00.045Z,6.80
2018-09-30T08:02:28.975Z,7.00
2018-09-30T08:04:57.729Z,6.77
2018-09-30T08:07:26.677Z,6.53
2018-09-30T08:09:55.389Z,6.67
2018-09-30T08:12:24.223Z,7.33
2018-09-30T08:14:54.415Z,6.33
2018-09-30T08:17:23.411Z,6.10
2018-09-30T08:19:52.136Z,6.47
2018-09-30T08:22:20.903Z,6.63
2018-09-30T08:24:49.998Z,6.40
2018-09-30T08:27:18.695Z,6.13
2018-09-30T08:29:47.445Z,6.47
2018-09-30T08:32:16.541Z,5.97
2018-09-30T08:34:45.315Z,6.67
2018-09-30T08:37:18.269Z,6.70
2018-09-30T08:39:47.023Z,7.00
2018-09-30T08:42:15.801Z,6.27
2018-09-30T08:44:44.550Z,6.60
2018-09-30T08:47:13.393Z,6.33
2018-09-30T08:49:43.100Z,6.03
2018-09-30T08:52:11.899Z,6.33
2018-09-30T08:54:41.600Z,6.53
2018-09-30T08:57:10.310Z,6.33
2018-09-30T08:59:39.138Z,5.40
2018-09-30T09:02:07.884Z,5.50
2018-09-30T09:04:36.645Z,6.40
2018-09-30T09:07:05.394Z,6.13
2018-09-30T09:09:34.994Z,6.03
2018-09-30T09:12:03.731Z,5.83
2018-09-30T09:14:32.486Z,5.53
2018-09-30T09:17:01.218Z,6.57
2018-09-30T09:19:30.007Z,6.27
2018-09-30T09:21:58.907Z,6.07
2018-09-30T09:24:27.765Z,6.27
2018-09-30T09:26:56.518Z,6.47
2018-09-30T09:29:25.261Z,6.40
2018-09-30T09:31:54.621Z,6.03
2018-09-30T09:34:23.509Z,5.07
2018-09-30T09:36:52.414Z,5.50
2018-09-30T09:39:21.220Z,3.67
2018-09-30T09:41:50.016Z,3.60
2018-09-30T09:44:18.674Z,3.27
2018-09-30T09:46:47.355Z,3.20
2018-09-30T09:49:16.058Z,2.47
2018-09-30T09:51:44.835Z,2.53
2018-09-30T09:54:13.522Z,2.47
2018-09-30T09:56:42.199Z,2.50
2018-09-30T09:59:10.970Z,2.43
2018-09-30T10:01:39.708Z,2.50
2018-09-30T10:04:08.347Z,2.70
2018-09-30T10:06:37.050Z,2.03
2018-09-30T10:09:06.746Z,2.53
2018-09-30T10:11:35.529Z,2.30
2018-09-30T10:14:04.227Z,2.20
2018-09-30T10:16:33.468Z,2.20
2018-09-30T10:19:02.116Z,1.43
2018-09-30T10:21:30.884Z,2.23
2018-09-30T10:23:59.594Z,2.33
2018-09-30T10:26:28.369Z,2.50
2018-09-30T10:28:57.120Z,2.60
2018-09-30T10:31:25.887Z,2.20
2018-09-30T10:33:54.677Z,2.43
2018-09-30T10:36:23.481Z,2.13
2018-09-30T10:38:52.339Z,1.97
2018-09-30T10:41:21.127Z,2.13
2018-09-30T10:43:49.857Z,2.93
2018-09-30T10:46:18.574Z,2.00
2018-09-30T10:48:47.257Z,2.20
2018-09-30T10:51:15.996Z,2.67
2018-09-30T10:53:44.762Z,2.43
2018-09-30T10:56:13.495Z,2.70
2018-09-30T10:58:42.373Z,2.23
2018-09-30T11:01:11.286Z,2.60
2018-09-30T11:03:39.948Z,2.83
2018-09-30T11:06:11.330Z,2.20
2018-09-30T11:08:45.113Z,2.20
2018-09-30T11:11:14.378Z,2.13
2018-09-30T11:13:43.894Z,2.53
2018-09-30T11:16:12.688Z,2.17
2018-09-30T11:18:41.498Z,2.27
2018-09-30T11:21:10.395Z,1.70
2018-09-30T11:23:39.109Z,2.03
2018-09-30T11:26:07.953Z,2.27
2018-09-30T11:28:36.794Z,2.30
2018-09-30T11:31:05.703Z,2.20
2018-09-30T11:33:34.489Z,1.77
2018-09-30T11:36:03.146Z,2.43
2018-09-30T11:38:32.006Z,1.90
2018-09-30T11:41:00.753Z,1.97
2018-09-30T11:43:29.455Z,2.13
2018-09-30T11:45:58.129Z,2.07
2018-09-30T11:48:26.899Z,2.00
2018-09-30T11:50:55.642Z,2.23
2018-09-30T11:53:24.356Z,2.40
2018-09-30T11:55:53.062Z,2.23
2018-09-30T11:58:21.794Z,2.20
2018-09-30T12:00:50.656Z,4.10
2018-09-30T12:03:19.950Z,2.87
2018-09-30T12:05:48.645Z,2.50
2018-09-30T12:08:17.425Z,1.93
2018-09-30T12:10:46.217Z,2.10
2018-09-30T12:13:14.874Z,2.07
2018-09-30T12:15:43.775Z,2.10
2018-09-30T12:18:12.651Z,2.03
2018-09-30T12:20:41.550Z,2.23
2018-09-30T12:23:10.271Z,1.97
2018-09-30T12:25:38.997Z,1.80
2018-09-30T12:28:07.711Z,2.00
2018-09-30T12:30:36.456Z,2.00
2018-09-30T12:33:06.174Z,1.80
2018-09-30T12:35:34.837Z,2.20
2018-09-30T12:38:03.695Z,2.10
2018-09-30T12:40:32.465Z,1.87
2018-09-30T12:43:01.165Z,2.03
2018-09-30T12:45:29.898Z,1.83
2018-09-30T12:47:58.560Z,2.10
2018-09-30T12:50:27.453Z,1.77
2018-09-30T12:52:56.398Z,1.70
2018-09-30T12:55:25.132Z,1.77
2018-09-30T12:57:53.827Z,2.03
2018-09-30T13:00:22.474Z,2.03
2018-09-30T13:02:51.147Z,1.60
2018-09-30T13:05:19.824Z,2.40
2018-09-30T13:07:48.513Z,2.30
2018-09-30T13:10:17.272Z,2.40
2018-09-30T13:12:45.951Z,2.10
2018-09-30T13:15:14.700Z,1.80
2018-09-30T13:17:43.329Z,2.17
2018-09-30T13:20:14.245Z,2.03
2018-09-30T13:22:43.061Z,1.93
2018-09-30T13:25:11.746Z,1.80
2018-09-30T13:27:40.589Z,2.00
2018-09-30T13:30:09.430Z,1.80
2018-09-30T13:32:38.141Z,1.90
2018-09-30T13:35:07.130Z,1.60
2018-09-30T13:37:35.920Z,1.70
2018-09-30T13:40:04.673Z,1.80
2018-09-30T13:42:33.400Z,1.13
2018-09-30T13:45:02.075Z,1.50
2018-09-30T13:47:30.756Z,1.27
2018-09-30T13:49:59.531Z,1.57
2018-09-30T13:52:28.342Z,1.67
2018-09-30T13:54:57.126Z,1.73
2018-09-30T13:57:26.752Z,1.30
2018-09-30T13:59:55.431Z,1.63
2018-09-30T14:02:24.217Z,1.37
2018-09-30T14:04:52.901Z,1.47
2018-09-30T14:07:21.529Z,1.27
2018-09-30T14:09:50.221Z,1.67
2018-09-30T14:12:19.023Z,1.77
2018-09-30T14:14:47.692Z,1.43
2018-09-30T14:17:16.438Z,1.97
2018-09-30T14:19:45.217Z,1.20
2018-09-30T14:22:13.878Z,1.60
2018-09-30T14:24:45.337Z,1.57
2018-09-30T14:27:14.168Z,1.80
2018-09-30T14:29:42.870Z,1.50
2018-09-30T14:32:11.615Z,1.63
2018-09-30T14:34:40.291Z,1.90
2018-09-30T14:37:08.998Z,1.83
2018-09-30T14:39:37.630Z,2.20
2018-09-30T14:42:07.232Z,1.57
2018-09-30T14:44:35.974Z,2.03
2018-09-30T14:47:05.047Z,1.77
2018-09-30T14:49:33.753Z,1.60
2018-09-30T14:52:02.538Z,1.40
2018-09-30T14:54:31.264Z,1.57
2018-09-30T14:57:00.616Z,1.60
2018-09-30T14:59:29.377Z,1.50
2018-09-30T15:01:58.310Z,1.57
2018-09-30T15:04:27.015Z,1.57
2018-09-30T15:06:55.662Z,2.23
2018-09-30T15:09:24.404Z,1.27
2018-09-30T15:11:53.228Z,1.50
2018-09-30T15:14:21.975Z,1.63
2018-09-30T15:16:50.689Z,1.53
2018-09-30T15:19:19.435Z,1.60
2018-09-30T15:21:48.123Z,2.53
2018-09-30T15:24:16.831Z,1.80
2018-09-30T15:26:45.520Z,1.73
2018-09-30T15:29:14.327Z,2.00
2018-09-30T15:31:43.070Z,1.37
2018-09-30T15:34:11.913Z,1.67
2018-09-30T15:36:40.810Z,2.23
2018-09-30T15:39:11.098Z,1.90
2018-09-30T15:41:40.429Z,1.77
2018-09-30T15:44:09.578Z,1.50
2018-09-30T15:46:38.378Z,1.73
2018-09-30T15:49:07.456Z,1.93
2018-09-30T15:51:36.250Z,1.53
2018-09-30T15:54:05.193Z,1.50
2018-09-30T15:56:33.855Z,1.40
2018-09-30T15:59:02.530Z,2.30
2018-09-30T16:01:31.266Z,1.60
2018-09-30T16:03:59.921Z,1.67
2018-09-30T16:06:28.686Z,1.57
2018-09-30T16:08:57.355Z,1.50
2018-09-30T16:11:26.063Z,1.73
2018-09-30T16:13:54.757Z,1.93
2018-09-30T16:16:23.956Z,1.30
2018-09-30T16:18:52.716Z,1.60
2018-09-30T16:21:21.465Z,1.30
2018-09-30T16:23:50.162Z,1.80
2018-09-30T16:26:18.890Z,1.93
2018-09-30T16:28:49.114Z,1.87
2018-09-30T16:31:17.928Z,1.80
2018-09-30T16:33:46.632Z,1.40
2018-09-30T16:36:15.386Z,1.60
2018-09-30T16:38:44.207Z,1.60
2018-09-30T16:41:13.090Z,1.60
2018-09-30T16:43:41.923Z,1.60
2018-09-30T16:46:11.537Z,1.90
2018-09-30T16:48:40.232Z,1.50
2018-09-30T16:51:08.970Z,1.63
2018-09-30T16:53:38.288Z,2.50
2018-09-30T16:56:07.054Z,1.40
2018-09-30T16:58:35.702Z,1.57
2018-09-30T17:01:04.505Z,1.97
2018-09-30T17:03:33.206Z,2.13
2018-09-30T17:06:01.952Z,1.70
2018-09-30T17:08:30.912Z,2.20
2018-09-30T17:10:59.780Z,1.83
2018-09-30T17:13:28.585Z,2.07
2018-09-30T17:15:57.469Z,1.60
2018-09-30T17:18:26.206Z,1.87
2018-09-30T17:20:54.975Z,5.83
2018-09-30T17:23:23.652Z,2.10
2018-09-30T17:25:52.338Z,4.07
2018-09-30T17:28:20.981Z,2.57
2018-09-30T17:30:49.769Z,2.90
2018-09-30T17:33:18.512Z,3.30
2018-09-30T17:35:47.214Z,1.97
2018-09-30T17:38:15.903Z,1.70
2018-09-30T17:40:44.623Z,1.50
2018-09-30T17:43:13.306Z,1.67
2018-09-30T17:45:41.992Z,1.60
2018-09-30T17:48:11.703Z,1.77
2018-09-30T17:50:40.517Z,1.93
2018-09-30T17:53:09.189Z,1.60
2018-09-30T17:55:37.984Z,1.77
2018-09-30T17:58:06.692Z,2.33
2018-09-30T18:00:35.406Z,1.60
2018-09-30T18:03:04.182Z,1.70
2018-09-30T18:05:32.925Z,1.30
2018-09-30T18:08:01.658Z,1.60
2018-09-30T18:10:30.551Z,1.17
2018-09-30T18:13:00.358Z,1.37
2018-09-30T18:15:29.070Z,1.93
2018-09-30T18:17:57.732Z,1.50
2018-09-30T18:20:26.484Z,1.27
2018-09-30T18:22:55.183Z,1.67
2018-09-30T18:25:24.002Z,1.60
2018-09-30T18:27:52.699Z,1.50
2018-09-30T18:30:21.318Z,2.00
2018-09-30T18:32:50.017Z,1.90
2018-09-30T18:35:18.879Z,1.77
2018-09-30T18:37:47.751Z,2.27
2018-09-30T18:40:16.617Z,2.00
2018-09-30T18:42:45.484Z,2.43
2018-09-30T18:45:14.417Z,1.97
2018-09-30T18:47:43.232Z,1.77
2018-09-30T18:50:12.187Z,2.00
2018-09-30T18:52:41.161Z,1.97
2018-09-30T18:55:09.869Z,1.90
2018-09-30T18:57:39.102Z,2.40
2018-09-30T19:00:07.834Z,1.90
2018-09-30T19:02:36.538Z,2.20
2018-09-30T19:05:05.211Z,2.33
2018-09-30T19:07:33.955Z,3.10
2018-09-30T19:10:02.631Z,2.70
2018-09-30T19:12:31.383Z,2.67
2018-09-30T19:15:00.202Z,2.87
2018-09-30T19:17:29.185Z,2.70
2018-09-30T19:19:57.965Z,2.40
2018-09-30T19:22:26.779Z,2.83
2018-09-30T19:24:55.459Z,2.37
2018-09-30T19:27:24.153Z,2.93
2018-09-30T19:29:52.923Z,2.60
2018-09-30T19:32:21.805Z,2.60
2018-09-30T19:34:50.562Z,2.60
2018-09-30T19:37:19.359Z,2.27
2018-09-30T19:39:48.075Z,2.93
2018-09-30T19:42:16.891Z,2.87
2018-09-30T19:44:45.640Z,2.53
2018-09-30T19:47:14.348Z,2.43
2018-09-30T19:49:43.885Z,2.40
2018-09-30T19:52:12.958Z,2.50
2018-09-30T19:54:41.715Z,2.07
2018-09-30T19:57:10.431Z,2.37
2018-09-30T19:59:39.217Z,1.97
2018-09-30T20:02:08.407Z,2.03
2018-09-30T20:04:37.486Z,1.90
2018-09-30T20:07:06.280Z,2.17
2018-09-30T20:09:35.095Z,2.27
2018-09-30T20:12:03.934Z,2.20
2018-09-30T20:14:32.640Z,2.00
2018-09-30T20:17:01.360Z,2.33
2018-09-30T20:19:30.078Z,2.10
2018-09-30T20:21:58.828Z,2.20
2018-09-30T20:24:27.513Z,2.77
2018-09-30T20:26:56.284Z,1.87
2018-09-30T20:29:25.063Z,1.83
2018-09-30T20:31:54.044Z,2.63
2018-09-30T20:34:22.809Z,1.90
2018-09-30T20:36:51.619Z,2.00
2018-09-30T20:39:20.391Z,1.97
2018-09-30T20:41:49.130Z,2.07
2018-09-30T20:44:17.901Z,1.97
2018-09-30T20:46:46.681Z,2.33
2018-09-30T20:49:15.502Z,1.90
2018-09-30T20:51:44.487Z,2.00
2018-09-30T20:54:13.338Z,1.90
2018-09-30T20:56:42.061Z,2.00
2018-09-30T20:59:10.832Z,1.93
2018-09-30T21:01:39.613Z,1.60
2018-09-30T21:04:08.469Z,1.60
2018-09-30T21:06:39.546Z,1.43
2018-09-30T21:09:10.627Z,1.13
2018-09-30T21:11:39.548Z,2.00
2018-09-30T21:14:08.394Z,1.80
2018-09-30T21:16:37.294Z,1.80
2018-09-30T21:19:06.260Z,1.20
2018-09-30T21:21:35.038Z,1.50
2018-09-30T21:24:03.733Z,1.47
2018-09-30T21:26:32.443Z,1.30
2018-09-30T21:29:01.475Z,1.50
2018-09-30T21:31:30.215Z,1.63
2018-09-30T21:33:58.981Z,1.43
2018-09-30T21:36:27.761Z,1.20
2018-09-30T21:38:56.468Z,1.07
2018-09-30T21:41:25.306Z,1.43
2018-09-30T21:43:54.095Z,1.20
2018-09-30T21:46:22.870Z,1.63
2018-09-30T21:48:51.773Z,1.60
2018-09-30T21:51:20.451Z,1.43
2018-09-30T21:53:49.843Z,1.67
2018-09-30T21:56:18.487Z,1.47
2018-09-30T21:58:47.249Z,1.40
2018-09-30T22:01:16.008Z,1.40
2018-09-30T22:03:44.682Z,1.47
2018-09-30T22:06:13.423Z,1.90
2018-09-30T22:08:42.200Z,1.37
2018-09-30T22:11:10.979Z,1.60
2018-09-30T22:13:39.699Z,1.50
2018-09-30T22:16:08.452Z,1.37
2018-09-30T22:18:37.250Z,1.53
2018-09-30T22:21:06.364Z,1.47
2018-09-30T22:23:35.079Z,1.20
2018-09-30T22:26:03.935Z,1.10
2018-09-30T22:28:32.714Z,1.50
2018-09-30T22:31:01.491Z,1.27
2018-09-30T22:33:30.208Z,1.23
2018-09-30T22:35:58.947Z,1.70
2018-09-30T22:38:27.679Z,1.30
2018-09-30T22:40:56.468Z,1.37
2018-09-30T22:43:25.187Z,1.40
2018-09-30T22:45:53.948Z,1.50
2018-09-30T22:48:22.664Z,2.00
2018-09-30T22:50:51.414Z,2.23
2018-09-30T22:53:20.133Z,1.83
2018-09-30T22:55:48.855Z,1.43
2018-09-30T22:58:17.597Z,1.60
2018-09-30T23:00:46.261Z,1.87
2018-09-30T23:03:14.989Z,2.27
2018-09-30T23:05:44.415Z,2.20
2018-09-30T23:08:13.139Z,2.23
2018-09-30T23:10:41.848Z,1.70
2018-09-30T23:13:10.499Z,2.10
2018-09-30T23:15:39.189Z,2.03
2018-09-30T23:18:07.965Z,2.17
2018-09-30T23:20:36.844Z,2.30
2018-09-30T23:23:06.176Z,2.20
2018-09-30T23:25:34.929Z,2.33
2018-09-30T23:28:03.573Z,2.10
2018-09-30T23:30:32.273Z,1.77
2018-09-30T23:33:00.965Z,2.00
2018-09-30T23:35:29.702Z,2.37
2018-09-30T23:37:58.343Z,1.70
2018-09-30T23:40:27.132Z,1.80
2018-09-30T23:42:55.780Z,2.07
2018-09-30T23:45:24.498Z,2.00
2018-09-30T23:47:53.171Z,2.03
2018-09-30T23:50:21.834Z,2.00
2018-09-30T23:52:50.623Z,1.70
2018-09-30T23:55:19.944Z,2.03
2018-09-30T23:57:48.755Z,1.73
